createdAt,value
2024-01-28T00:00:00.505Z,90.86
2024-01-28T00:02:35.409Z,90.94
2024-01-28T00:05:06.733Z,90.81
2024-01-28T00:07:45.032Z,91.01
2024-01-28T00:10:14.116Z,91.38
2024-01-28T00:12:45.142Z,90.89
2024-01-28T00:15:17.180Z,91.08
2024-01-28T00:17:54.869Z,91.01
2024-01-28T00:20:26.049Z,91.21
2024-01-28T00:22:56.441Z,91.16
2024-01-28T00:25:28.613Z,91.15
2024-01-28T00:28:17.323Z,91.53
2024-01-28T00:30:50.609Z,91.89
2024-01-28T00:33:27.354Z,91.50
2024-01-28T00:35:59.674Z,91.59
2024-01-28T00:38:33.667Z,91.37
2024-01-28T00:41:03.150Z,91.33
2024-01-28T00:43:32.543Z,91.56
2024-01-28T00:46:01.875Z,91.73
2024-01-28T00:48:34.052Z,91.45
2024-01-28T00:51:03.970Z,91.83
2024-01-28T00:53:43.431Z,91.52
2024-01-28T00:56:17.362Z,92.00
2024-01-28T00:58:55.151Z,91.99
2024-01-28T01:01:38.184Z,91.83
2024-01-28T01:04:07.979Z,91.99
2024-01-28T01:06:49.067Z,92.01
2024-01-28T01:09:19.904Z,91.97
2024-01-28T01:11:52.444Z,91.79
2024-01-28T01:14:21.953Z,92.48
2024-01-28T01:24:17.005Z,91.78
2024-01-28T01:26:51.104Z,92.22
2024-01-28T01:29:24.280Z,92.24
2024-01-28T01:32:13.079Z,92.12
2024-01-28T01:34:44.308Z,92.12
2024-01-28T01:37:13.603Z,92.54
2024-01-28T01:39:45.618Z,92.90
2024-01-28T01:42:14.906Z,92.67
2024-01-28T01:44:46.243Z,92.65
2024-01-28T01:47:16.345Z,92.97
2024-01-28T01:49:45.547Z,92.79
2024-01-28T01:52:17.394Z,92.70
2024-01-28T01:54:48.932Z,92.79
2024-01-28T01:57:23.345Z,92.59
2024-01-28T01:59:55.464Z,92.79
2024-01-28T02:02:23.452Z,93.14
2024-01-28T02:04:51.573Z,93.17
2024-01-28T02:07:19.044Z,93.30
2024-01-28T02:09:52.421Z,93.19
2024-01-28T02:12:23.177Z,93.34
2024-01-28T02:15:57.293Z,93.44
2024-01-28T02:18:27.240Z,93.70
2024-01-28T02:20:58.182Z,93.43
2024-01-28T02:23:28.172Z,93.46
2024-01-28T02:25:58.132Z,93.51
2024-01-28T02:28:25.088Z,93.56
2024-01-28T02:30:53.196Z,93.56
2024-01-28T02:33:21.389Z,93.58
2024-01-28T02:35:51.740Z,93.23
2024-01-28T02:38:22.541Z,93.40
2024-01-28T02:40:53.000Z,93.46
2024-01-28T02:43:26.919Z,93.40
2024-01-28T02:45:55.439Z,93.68
2024-01-28T02:48:27.903Z,93.34
2024-01-28T02:50:59.431Z,93.91
2024-01-28T02:53:31.637Z,93.75
2024-01-28T02:56:01.657Z,93.62
2024-01-28T02:58:40.217Z,93.52
2024-01-28T03:01:10.678Z,93.93
2024-01-28T03:03:41.209Z,93.88
2024-01-28T03:06:11.596Z,94.35
2024-01-28T03:08:45.397Z,94.01
2024-01-28T03:11:15.740Z,94.21
2024-01-28T03:13:47.704Z,94.41
2024-01-28T03:16:18.384Z,94.62
2024-01-28T03:18:55.450Z,94.21
2024-01-28T03:21:28.379Z,94.51
2024-01-28T03:23:59.785Z,94.37
2024-01-28T03:26:35.295Z,94.69
2024-01-28T03:29:06.068Z,94.56
2024-01-28T03:31:37.615Z,94.01
2024-01-28T03:34:08.080Z,94.45
2024-01-28T03:36:39.953Z,94.49
2024-01-28T03:39:09.769Z,94.44
2024-01-28T03:41:53.260Z,94.68
2024-01-28T03:44:24.511Z,94.80
2024-01-28T03:46:54.742Z,94.43
2024-01-28T03:49:22.954Z,94.56
2024-01-28T03:51:52.942Z,94.37
2024-01-28T03:54:56.810Z,94.40
2024-01-28T03:57:26.597Z,94.58
2024-01-28T03:59:57.126Z,94.61
2024-01-28T04:02:29.494Z,94.55
2024-01-28T04:05:00.470Z,94.61
2024-01-28T04:07:33.225Z,94.32
2024-01-28T04:10:02.917Z,94.57
2024-01-28T04:12:35.481Z,94.41
2024-01-28T04:15:04.754Z,94.31
2024-01-28T04:17:35.675Z,93.98
2024-01-28T04:20:06.565Z,93.89
2024-01-28T04:22:35.592Z,93.79
2024-01-28T04:25:03.070Z,93.45
2024-01-28T04:27:32.591Z,93.60
2024-01-28T04:30:10.589Z,93.29
2024-01-28T04:32:42.805Z,93.34
2024-01-28T04:38:35.731Z,92.99
2024-01-28T04:41:03.544Z,93.01
2024-01-28T04:43:40.798Z,92.99
2024-01-28T04:46:09.982Z,92.51
2024-01-28T04:48:47.104Z,92.77
2024-01-28T04:55:23.435Z,92.52
2024-01-28T04:58:03.245Z,92.76
2024-01-28T05:00:35.836Z,92.35
2024-01-28T05:03:09.628Z,92.34
2024-01-28T05:05:49.316Z,92.51
2024-01-28T05:08:19.387Z,92.78
2024-01-28T05:10:49.187Z,92.21
2024-01-28T05:13:40.691Z,92.05
2024-01-28T05:16:15.868Z,91.34
2024-01-28T05:19:04.305Z,91.29
2024-01-28T05:22:03.998Z,91.05
2024-01-28T05:24:36.852Z,91.23
2024-01-28T05:27:08.570Z,91.01
2024-01-28T05:29:38.489Z,90.80
2024-01-28T05:32:14.338Z,90.88
2024-01-28T05:34:42.897Z,90.34
2024-01-28T05:37:16.167Z,90.15
2024-01-28T05:39:44.760Z,89.99
2024-01-28T05:42:39.823Z,89.90
2024-01-28T05:45:09.527Z,89.46
2024-01-28T05:47:40.178Z,89.47
2024-01-28T05:50:10.313Z,89.51
2024-01-28T05:52:41.251Z,89.63
2024-01-28T05:55:09.872Z,89.69
2024-01-28T05:57:43.431Z,89.63
2024-01-28T06:00:24.178Z,89.25
2024-01-28T06:02:59.889Z,89.20
2024-01-28T06:05:34.121Z,88.95
2024-01-28T06:08:06.633Z,88.60
2024-01-28T06:10:37.543Z,88.27
2024-01-28T06:13:12.969Z,88.26
2024-01-28T06:15:42.670Z,88.08
2024-01-28T06:18:18.409Z,87.63
2024-01-28T06:20:47.642Z,86.94
2024-01-28T06:23:17.875Z,87.29
2024-01-28T06:25:47.504Z,86.12
2024-01-28T06:28:22.700Z,85.88
2024-01-28T06:31:01.267Z,85.50
2024-01-28T06:33:32.979Z,84.60
2024-01-28T06:36:02.340Z,84.33
2024-01-28T06:38:35.246Z,83.60
2024-01-28T06:41:05.036Z,83.14
2024-01-28T06:45:56.163Z,82.80
2024-01-28T06:48:32.288Z,82.53
2024-01-28T06:51:23.296Z,82.96
2024-01-28T06:53:58.336Z,82.62
2024-01-28T06:56:36.632Z,82.70
2024-01-28T07:02:44.093Z,82.51
2024-01-28T07:05:26.805Z,82.70
2024-01-28T07:08:12.478Z,82.79
2024-01-28T07:11:21.885Z,82.70
2024-01-28T07:14:51.053Z,82.64
2024-01-28T07:17:19.945Z,82.39
2024-01-28T07:20:18.410Z,82.59
2024-01-28T07:22:56.027Z,82.66
2024-01-28T07:25:29.268Z,82.84
2024-01-28T07:27:56.988Z,83.15
2024-01-28T07:30:25.357Z,82.93
2024-01-28T07:32:55.804Z,82.93
2024-01-28T07:35:23.528Z,82.86
2024-01-28T07:37:54.372Z,82.51
2024-01-28T07:40:22.613Z,82.60
2024-01-28T07:42:51.763Z,82.76
2024-01-28T07:45:21.447Z,82.97
2024-01-28T07:47:54.672Z,82.78
2024-01-28T07:50:25.869Z,82.58
2024-01-28T07:53:10.146Z,82.64
2024-01-28T07:55:45.057Z,82.53
2024-01-28T07:58:14.256Z,82.68
2024-01-28T08:00:42.096Z,82.52
2024-01-28T08:03:10.779Z,83.01
2024-01-28T08:05:42.062Z,82.79
2024-01-28T08:08:16.248Z,83.04
2024-01-28T08:10:47.837Z,82.71
2024-01-28T08:17:50.051Z,82.53
2024-01-28T08:20:19.674Z,82.69
2024-01-28T08:27:23.512Z,82.73
2024-01-28T08:30:48.201Z,82.48
2024-01-28T08:33:21.160Z,82.58
2024-01-28T08:35:53.288Z,82.40
2024-01-28T08:38:51.313Z,82.30
2024-01-28T08:41:23.324Z,82.15
2024-01-28T08:44:43.450Z,82.50
2024-01-28T08:47:23.233Z,82.50
2024-01-28T08:50:11.362Z,82.49
2024-01-28T08:53:10.728Z,82.48
2024-01-28T08:55:45.082Z,82.34
2024-01-28T08:59:29.747Z,82.25
2024-01-28T09:02:07.674Z,81.92
2024-01-28T09:04:41.959Z,81.94
2024-01-28T09:07:12.620Z,81.90
2024-01-28T09:09:43.075Z,81.85
2024-01-28T09:12:13.443Z,82.20
2024-01-28T09:14:45.084Z,82.21
2024-01-28T09:17:14.486Z,82.10
2024-01-28T09:20:35.790Z,81.93
2024-01-28T09:23:10.754Z,82.33
2024-01-28T09:25:38.079Z,81.91
2024-01-28T09:28:14.012Z,82.00
2024-01-28T09:30:47.431Z,82.14
2024-01-28T09:34:10.718Z,82.16
2024-01-28T09:36:43.539Z,82.25
2024-01-28T09:39:15.421Z,82.30
2024-01-28T09:42:14.936Z,82.38
2024-01-28T09:44:48.216Z,82.14
2024-01-28T09:47:26.505Z,82.01
2024-01-28T09:49:55.287Z,82.02
2024-01-28T09:52:24.508Z,82.16
2024-01-28T09:55:15.270Z,82.22
2024-01-28T09:57:44.417Z,82.14
2024-01-28T10:00:18.565Z,82.18
2024-01-28T10:02:47.600Z,82.23
2024-01-28T10:25:02.114Z,82.80
2024-01-28T10:27:38.500Z,82.98
2024-01-28T10:30:10.422Z,82.93
2024-01-28T10:38:31.402Z,82.71
2024-01-28T10:41:09.229Z,82.66
2024-01-28T10:43:39.996Z,83.02
2024-01-28T10:46:11.538Z,82.93
2024-01-28T10:48:39.646Z,82.38
2024-01-28T10:51:08.262Z,82.21
2024-01-28T10:53:36.358Z,82.18
2024-01-28T10:56:06.973Z,81.86
2024-01-28T10:58:36.939Z,81.92
2024-01-28T11:01:07.985Z,81.59
2024-01-28T11:04:39.614Z,81.52
2024-01-28T11:07:34.178Z,81.14
2024-01-28T11:16:20.613Z,80.83
2024-01-28T11:24:04.118Z,80.04
2024-01-28T11:26:43.380Z,80.45
2024-01-28T11:29:46.250Z,80.37
2024-01-28T11:32:13.565Z,80.70
2024-01-28T11:34:49.499Z,80.02
2024-01-28T11:43:05.591Z,80.75
2024-01-28T13:04:32.223Z,83.75
2024-01-28T13:21:00.035Z,82.75
2024-01-28T13:24:23.486Z,83.12
2024-01-28T13:45:30.356Z,82.64
2024-01-28T13:49:16.177Z,82.34
2024-01-28T14:02:30.974Z,82.09
2024-01-28T14:05:18.074Z,82.08
2024-01-28T14:07:53.516Z,82.40
2024-01-28T14:19:25.107Z,81.53
2024-01-28T14:21:59.434Z,81.67
2024-01-28T14:24:33.907Z,81.47
2024-01-28T14:27:10.315Z,81.77
2024-01-28T14:29:47.124Z,81.45
2024-01-28T14:32:19.594Z,81.82
2024-01-28T14:39:28.991Z,81.95
2024-01-28T15:11:50.207Z,81.37
2024-01-28T15:19:20.964Z,81.49
2024-01-28T15:22:20.877Z,81.22
2024-01-28T15:33:07.157Z,80.94
2024-01-28T15:36:19.756Z,81.29
2024-01-28T15:39:20.762Z,80.98
2024-01-28T15:41:59.054Z,80.90
2024-01-28T15:48:44.725Z,81.08
2024-01-28T15:52:02.791Z,81.13
2024-01-28T15:54:43.798Z,81.08
2024-01-28T15:58:10.494Z,80.92
2024-01-28T16:00:59.100Z,81.00
2024-01-28T16:03:31.627Z,81.20
2024-01-28T16:06:02.872Z,81.10
2024-01-28T16:09:01.078Z,81.03
2024-01-28T16:11:58.663Z,81.01
2024-01-28T16:15:53.062Z,81.02
2024-01-28T16:18:55.991Z,81.00
2024-01-28T16:21:47.047Z,80.76
2024-01-28T16:24:55.583Z,80.91
2024-01-28T16:35:52.633Z,80.69
2024-01-28T16:38:38.918Z,80.25
2024-01-28T16:41:15.866Z,80.47
2024-01-28T16:43:49.088Z,80.31
2024-01-28T16:46:19.133Z,80.30
2024-01-28T16:48:53.041Z,80.25
2024-01-28T16:51:20.653Z,80.49
2024-01-28T16:53:52.564Z,80.87
2024-01-28T16:56:27.067Z,80.77
2024-01-28T16:58:57.408Z,80.92
2024-01-28T17:01:31.258Z,80.81
2024-01-28T17:04:00.684Z,80.87
2024-01-28T17:06:29.339Z,80.69
2024-01-28T17:09:01.282Z,80.62
2024-01-28T17:11:29.535Z,80.95
2024-01-28T17:14:34.834Z,80.66
2024-01-28T17:17:15.637Z,80.66
2024-01-28T17:20:32.288Z,80.62
2024-01-28T17:25:53.093Z,80.34
2024-01-28T17:32:30.934Z,79.58
2024-01-28T17:35:32.573Z,79.39
2024-01-28T17:51:59.821Z,78.99
2024-01-28T17:58:37.021Z,79.18
2024-01-28T18:10:59.362Z,78.58
2024-01-28T18:13:51.612Z,78.77
2024-01-28T18:16:47.632Z,78.76
2024-01-28T18:19:30.064Z,79.07
2024-01-28T18:22:19.193Z,78.85
2024-01-28T18:25:08.857Z,78.98
2024-01-28T18:47:48.716Z,78.44
2024-01-28T18:50:18.542Z,78.61
2024-01-28T18:52:54.315Z,78.79
2024-01-28T18:56:12.022Z,78.39
2024-01-28T19:03:05.187Z,78.43
2024-01-28T19:08:51.457Z,78.29
2024-01-28T19:11:33.373Z,78.27
2024-01-28T19:14:38.304Z,78.29
2024-01-28T19:17:55.878Z,78.20
2024-01-28T19:24:33.347Z,78.33
2024-01-28T19:45:48.946Z,78.58
2024-01-28T19:51:51.504Z,78.24
2024-01-28T19:58:16.981Z,78.57
2024-01-28T20:00:54.143Z,78.73
2024-01-28T20:03:31.454Z,78.99
2024-01-28T20:06:22.976Z,78.76
2024-01-28T20:09:29.921Z,78.85
2024-01-28T20:12:01.904Z,79.19
2024-01-28T20:14:52.977Z,79.29
2024-01-28T20:17:28.873Z,79.28
2024-01-28T20:19:58.503Z,79.79
2024-01-28T20:22:35.771Z,80.02
2024-01-28T20:25:26.123Z,80.13
2024-01-28T20:28:02.909Z,80.31
2024-01-28T20:30:47.881Z,80.11
2024-01-28T20:33:16.413Z,80.19
2024-01-28T20:36:02.331Z,80.36
2024-01-28T20:38:47.267Z,80.29
2024-01-28T20:41:38.340Z,80.40
2024-01-28T20:44:25.268Z,80.38
2024-01-28T20:47:03.101Z,80.57
2024-01-28T20:49:35.190Z,80.51
2024-01-28T20:52:15.868Z,80.68
2024-01-28T20:55:08.385Z,80.49
2024-01-28T20:57:46.153Z,80.42
2024-01-28T21:00:18.810Z,80.52
2024-01-28T21:02:55.148Z,80.72
2024-01-28T21:06:03.815Z,80.63
2024-01-28T21:08:38.803Z,80.36
2024-01-28T21:11:12.901Z,80.60
2024-01-28T21:13:48.955Z,80.27
2024-01-28T21:16:43.761Z,80.42
2024-01-28T21:19:15.030Z,80.59
2024-01-28T21:21:51.489Z,80.46
2024-01-28T21:24:31.050Z,80.15
2024-01-28T21:27:08.248Z,80.16
2024-01-28T21:30:12.344Z,80.24
2024-01-28T21:33:02.788Z,80.25
2024-01-28T21:36:27.930Z,80.42
2024-01-28T21:39:07.013Z,80.08
2024-01-28T21:41:36.224Z,80.02
2024-01-28T21:44:09.688Z,79.70
2024-01-28T21:46:38.305Z,79.38
2024-01-28T21:49:08.348Z,79.22
2024-01-28T21:51:46.137Z,79.10
2024-01-28T21:54:18.750Z,79.16
2024-01-28T21:57:43.531Z,78.61
2024-01-28T22:00:15.605Z,78.48
2024-01-28T22:03:39.801Z,78.32
2024-01-28T22:06:50.376Z,78.66
2024-01-28T22:09:22.592Z,78.44
2024-01-28T22:11:53.719Z,78.68
2024-01-28T22:15:06.619Z,78.66
2024-01-28T22:17:37.895Z,78.31
2024-01-28T22:20:12.191Z,78.31
2024-01-28T22:22:41.128Z,78.10
2024-01-28T22:25:10.409Z,78.22
2024-01-28T22:27:47.009Z,78.54
2024-01-28T22:30:37.059Z,78.55
2024-01-28T22:33:06.736Z,78.40
2024-01-28T22:35:48.735Z,78.43
2024-01-28T22:38:20.787Z,78.45
2024-01-28T22:40:51.622Z,78.41
2024-01-28T22:43:20.950Z,78.38
2024-01-28T22:45:50.597Z,78.36
2024-01-28T22:48:23.936Z,78.68
2024-01-28T22:50:55.998Z,78.62
2024-01-28T22:53:26.192Z,78.58
2024-01-28T22:55:57.114Z,78.79
2024-01-28T22:58:26.764Z,78.77
2024-01-28T23:01:04.694Z,78.99
2024-01-28T23:03:35.825Z,78.79
2024-01-28T23:06:08.222Z,78.56
2024-01-28T23:08:37.989Z,78.77
2024-01-28T23:11:10.242Z,79.03
2024-01-28T23:13:42.010Z,79.08
2024-01-28T23:16:15.461Z,79.03
2024-01-28T23:18:52.158Z,79.18
2024-01-28T23:21:23.977Z,79.59
2024-01-28T23:23:55.956Z,79.90
2024-01-28T23:30:22.144Z,81.94
2024-01-28T23:32:54.920Z,80.38
2024-01-28T23:35:26.874Z,80.27
2024-01-28T23:37:54.152Z,80.27
2024-01-28T23:40:28.885Z,80.41
2024-01-28T23:43:01.122Z,80.39
2024-01-28T23:45:32.465Z,80.50
2024-01-28T23:48:06.757Z,80.48
2024-01-28T23:50:53.876Z,80.47
2024-01-28T23:53:49.547Z,80.57
2024-01-28T23:56:23.699Z,80.69
2024-01-28T23:58:56.589Z,80.97
